EDT,Max TemperatureF,Mean TemperatureF,Min TemperatureF,Max Dew PointF,MeanDew PointF,Min DewpointF,Max Humidity, Mean Humidity, Min Humidity, Max Sea Level PressureIn, Mean Sea Level PressureIn, Min Sea Level PressureIn, Max VisibilityMiles, Mean VisibilityMiles, Min VisibilityMiles, Max Wind SpeedMPH, Mean Wind SpeedMPH, Max Gust SpeedMPH,PrecipitationIn, CloudCover, Events, WindDirDegrees
2013-10-1,73,65,56,55,53,51,86,66,46,30.15,30.10,30.06,10,10,9,12,5,15,0.00,2,,259
2013-10-2,79,68,56,58,55,52,86,63,40,30.25,30.15,30.09,10,10,10,10,5,14,0.00,2,,275
2013-10-3,82,71,59,59,56,51,84,60,36,30.15,30.11,30.06,10,10,10,10,2,14,0.00,1,,225
2013-10-4,82,71,60,60,58,56,84,63,42,30.25,30.13,30.09,10,10,10,10,5,14,0.00,2,,263
2013-10-5,84,73,61,59,58,56,84,63,42,30.15,30.09,30.02,10,10,10,9,4,14,0.00,0,,212
2013-10-6,81,74,66,59,57,54,73,56,39,30.00,29.93,29.83,10,10,10,18,8,28,0.00,1,,173
2013-10-7,70,59,48,61,50,41,87,68,48,30.13,29.92,29.75,10,10,2,18,7,25,0.66,5,Rain,282
2013-10-8,68,55,42,43,40,38,83,60,37,30.23,30.19,30.11,10,10,9,12,5,20,0.00,0,,95
2013-10-9,69,56,43,42,38,34,83,55,26,30.27,30.21,30.17,10,10,10,9,3,16,0.00,0,,86
2013-10-10,66,56,46,55,46,35,83,71,58,30.20,30.14,30.06,10,8,2,13,4,17,0.05,6,Rain,260
2013-10-11,69,61,53,56,51,46,84,70,55,30.12,30.04,29.98,10,10,4,14,7,24,0.02,8,Rain,279
2013-10-12,66,62,57,58,55,53,90,79,68,30.19,30.11,29.99,10,6,0,8,1,14,0.06,8,Fog-Rain,271
2013-10-13,69,65,60,58,57,55,90,77,63,30.31,30.22,30.12,10,6,0,7,2,,0.11,8,Fog-Rain,54
2013-10-14,71,65,58,56,55,53,87,72,57,30.33,30.26,30.17,10,6,0,7,1,15,0.00,7,Fog,97
2013-10-15,73,63,52,52,48,46,83,62,41,30.24,30.14,30.06,10,10,10,12,5,17,0.00,1,,128
2013-10-16,70,62,53,54,51,46,78,66,53,30.09,30.01,29.95,10,10,10,13,4,,0.00,6,,249
2013-10-17,68,58,48,59,53,44,89,81,72,30.02,29.92,29.78,10,8,0,23,6,30,0.10,8,Fog-Rain,264
2013-10-18,64,55,45,45,40,34,86,59,31,30.06,30.00,29.96,10,10,10,9,3,14,0.00,3,,276
2013-10-19,62,53,44,47,43,37,77,58,39,30.00,29.91,29.83,10,10,10,20,7,33,0.01,6,,265
2013-10-20,60,48,36,35,31,25,82,54,26,30.09,30.05,29.96,10,10,10,13,4,16,0.00,2,,288
2013-10-21,67,56,45,38,34,25,65,43,20,30.11,30.03,29.95,10,10,10,16,5,20,0.00,0,,228
2013-10-22,57,52,47,45,43,37,86,70,54,29.99,29.91,29.82,10,8,2,14,7,20,0.08,7,Rain,280
2013-10-23,48,41,34,45,38,30,89,80,70,30.03,29.82,29.73,10,8,1,23,10,37,0.24,8,Rain-Snow,281
2013-10-24,41,38,34,31,30,28,82,73,64,30.19,30.09,30.00,10,8,1,15,7,23,0.04,8,Snow,278
2013-10-25,38,34,30,31,28,23,89,74,59,30.40,30.29,30.17,10,8,1,10,5,16,0.04,8,Snow,298
2013-10-26,54,41,27,30,23,20,78,52,26,30.33,30.17,30.04,10,10,10,20,10,32,0.00,3,,252
2013-10-27,61,53,45,39,33,31,71,52,32,30.11,30.06,30.02,10,10,10,18,8,26,0.00,4,,268
2013-10-28,56,52,47,50,47,40,89,80,71,30.29,30.22,30.11,10,6,1,8,2,10,0.22,7,Rain,255
2013-10-29,65,59,53,50,49,47,89,71,52,30.38,30.31,30.23,10,4,0,7,1,12,0.06,7,Fog-Rain,255
2013-10-30,66,61,55,54,52,47,86,73,60,30.28,30.22,30.14,10,8,2,17,6,22,0.44,8,Rain,244
2013-10-31,67,65,62,53,49,47,63,56,48,30.13,29.94,29.62,10,10,10,24,9,48,T,5,Rain,185